• Join FlightAware (Why Join?)
  • Login
  • US Flag 
02:21AM EDT


 

Airport Tracker/Info


-or-


 

Live Flight TrackerFlight Track Log ✈ N566UA ✈ 13-Apr-2013 ✈ KSFO - KBOS

Flight Track Log - Related Links

Times and Time Zones

All times are in EDT time to prevent confusion due to time zone crossing. See the N566UA flight status page for this flight to view local times or setup timezone preferences in your user account.

Time Position Orientation Groundspeed Altitude Reporting Facility
EDT Latitude Longitude Course Direction KTS MPH feet Rate Location/Type
01:32AM 37.6500 -122.3333 82° East 198 228 2,200  Level Northern Cal TRACON
01:33AM 37.7167 -122.3000 22° Northeast 253 291 4,700 2,160 Climbing Northern Cal TRACON
01:33AM 37.7228 -122.3031 338° Northwest 242 278 5,000 2,760 Climbing Oakland Center
01:34AM 37.7881 -122.2817 15° North 265 305 8,300 2,700 Climbing Oakland Center
01:35AM 37.8197 -122.1644 71° East 295 339 10,500 2,280 Climbing Oakland Center
01:36AM 37.8469 -122.0428 74° East 354 407 13,000 2,280 Climbing Oakland Center
01:37AM 37.9859 -121.7772 82° East  Level FlightAware Approximate
01:37AM 37.8753 -121.9139 74° East 377 434 15,100  Level Oakland Center
01:38AM 37.9067 -121.7781 74° East 398 458 17,100 1,980 Climbing Oakland Center
01:39AM 37.9383 -121.6350 74° East 421 484 19,100 1,920 Climbing Oakland Center
01:40AM 37.9711 -121.4867 74° East 436 502 21,000 1,860 Climbing Oakland Center
01:41AM 38.0050 -121.3244 75° East 451 519 22,900 1,680 Climbing Oakland Center
01:42AM 38.0397 -121.1664 74° East 467 537 24,500 1,440 Climbing Oakland Center
01:43AM 38.0750 -121.0056 74° East 476 548 25,900 1,380 Climbing Oakland Center
01:44AM 38.1133 -120.8419 73° East 484 557 27,300 1,320 Climbing Oakland Center
01:45AM 38.1547 -120.6767 72° East 493 567 28,600 1,260 Climbing Oakland Center
01:46AM 38.1944 -120.5086 73° East 499 574 29,900 1,200 Climbing Oakland Center
01:47AM 38.2350 -120.3383 73° East 505 581 31,100 1,320 Climbing Oakland Center
01:48AM 38.2747 -120.1681 73° East 504 580 32,600 1,320 Climbing Oakland Center
01:49AM 38.3133 -119.9989 74° East 500 575 33,800 1,020 Climbing Oakland Center
01:50AM 38.3528 -119.8300 73° East 501 577 34,700 540 Climbing Oakland Center
01:51AM 38.3911 -119.6589 74° East 504 580 35,000 120 Climbing Oakland Center
01:52AM 38.4339 -119.4728 74° East 499 574 35,000  Level Oakland Center
01:53AM 38.4739 -119.3033 73° East 500 575 35,000  Level Oakland Center
01:54AM 38.5081 -119.1297 76° East 506 582 35,000  Level Oakland Center
01:55AM 38.5261 -118.9497 83° East 512 589 35,000  Level Oakland Center
01:56AM 38.5436 -118.7692 83° East 514 592 35,000  Level Oakland Center
01:57AM 38.5619 -118.5897 83° East 514 592 35,000  Level Oakland Center
01:58AM 38.5786 -118.4103 83° East 512 589 35,000  Level Oakland Center
01:59AM 38.5961 -118.2306 83° East 512 589 35,000  Level Oakland Center
02:00AM 38.6117 -118.0608 83° East 514 592 35,000  Level Oakland Center
02:01AM 38.6278 -117.8803 83° East 512 589 35,000  Level Oakland Center
02:02AM 38.6444 -117.6972 83° East 515 593 35,000  Level Oakland Center
02:03AM 38.6603 -117.5139 84° East 515 593 35,000  Level Oakland Center
02:04AM 38.6761 -117.3314 84° East 514 592 35,000  Level Oakland Center
02:05AM 38.6889 -117.2222 81° East 514 592 35,000  Level Salt Lake Center
02:06AM 38.7164 -117.0433 79° East 510 587 35,000  Level Salt Lake Center
02:06AM 38.7286 -116.9719 78° East 509 586 35,000  Level Oakland Center
02:07AM 38.7433 -116.8644 80° East 509 586 35,000  Level Salt Lake Center
02:08AM 38.7697 -116.6861 79° East 508 585 35,000  Level Salt Lake Center
02:08AM 38.7806 -116.6144 79° East 509 586 35,000  Level Oakland Center
02:09AM 38.8064 -116.4361 79° East 508 585 35,000  Level Oakland Center
02:10AM 38.8222 -116.3294 79° East 509 586 35,000  Level Salt Lake Center
02:11AM 38.8458 -116.1517 80° East 506 582 35,000  Level Salt Lake Center
02:12AM 38.8711 -115.9725 80° East 510 587 35,000  Level Salt Lake Center
02:13AM 38.8958 -115.7931 80° East 510 587 35,000  Level Salt Lake Center
02:14AM 38.9206 -115.6128 80° East 513 590 35,000  Level Salt Lake Center
02:15AM 38.9458 -115.4303 80° East 517 595 35,000  Level Salt Lake Center
02:16AM 38.9706 -115.2475 80° East 517 595 35,000  Level Salt Lake Center
02:17AM 38.9950 -115.0650 80° East 516 594 35,000  Level Salt Lake Center
02:18AM 39.0194 -114.8817 80° East 520 598 35,000  Level Salt Lake Center
02:19AM 39.0431 -114.6972 81° East 522 601 35,000  Level Salt Lake Center
02:20AM 39.0672 -114.5111 80° East 525 604 35,100  Climbing Salt Lake Center
02:21AM 39.0900 -114.3250 81° East 527 606 35,000 -60 Descending Salt Lake Center
02:22AM 39.1128 -114.1394 81° East 525 604 35,000  Level Salt Lake Center
02:23AM 39.1358 -113.9522 81° East 528 608 35,000  Level Salt Lake Center
02:24AM 39.1586 -113.7661 81° East 527 606 35,000  Level Salt Lake Center
02:25AM 39.1800 -113.5786 82° East 527 606 35,000  Level Salt Lake Center
02:26AM 39.2033 -113.3889 81° East 533 613 35,000  Level Salt Lake Center
02:27AM 39.2256 -113.1994 81° East 534 615 35,000  Level Salt Lake Center
02:28AM 39.2467 -113.0092 82° East 536 617 35,000  Level Salt Lake Center
02:29AM 39.2686 -112.8183 81° East 538 619 35,000  Level Salt Lake Center
02:30AM 39.2889 -112.6319 82° East 540 621 35,000  Level Salt Lake Center
02:31AM 39.3150 -112.4419 80° East 542 624 35,000  Level Salt Lake Center
02:32AM 39.3497 -112.2572 76° East 535 616 35,000  Level Salt Lake Center
02:33AM 39.3908 -112.0333 77° East 536 617 35,000  Level Salt Lake Center
02:34AM 39.4258 -111.8450 76° East 540 621 35,000  Level Salt Lake Center
02:35AM 39.4597 -111.6556 77° East 543 625 35,000  Level Salt Lake Center
02:36AM 39.4939 -111.4647 77° East 546 628 35,000  Level Salt Lake Center
02:37AM 39.5286 -111.2725 77° East 550 633 35,000  Level Salt Lake Center
02:38AM 39.5589 -111.0989 77° East 550 633 35,000  Level Salt Lake Center
02:39AM 39.5969 -110.8833 77° East 549 632 35,000  Level Salt Lake Center
02:40AM 39.6281 -110.6986 78° East 549 632 35,000  Level Salt Lake Center
02:41AM 39.6600 -110.5114 77° East 555 639 35,000  Level Salt Lake Center
02:42AM 39.6972 -110.2925 77° East 557 641 35,000  Level Salt Lake Center
02:43AM 39.7269 -110.1058 78° East 552 635 35,000  Level Salt Lake Center
02:44AM 39.7578 -109.9222 78° East 545 627 35,000  Level Salt Lake Center
02:45AM 39.7878 -109.7369 78° East 547 629 35,000  Level Salt Lake Center
02:46AM 39.8219 -109.5236 78° East 540 621 35,000  Level Salt Lake Center
02:47AM 39.8517 -109.3414 78° East 537 618 35,000  Level Salt Lake Center
02:48AM 39.8806 -109.1583 78° East 537 618 35,000  Level Salt Lake Center
02:49AM 39.9100 -108.9747 78° East 536 617 35,000  Level Salt Lake Center
02:50AM 39.9425 -108.7583 79° East 535 616 35,000  Level Denver Center
02:51AM 39.9714 -108.5750 78° East 536 617 35,000  Level Denver Center
02:52AM 39.9986 -108.3906 79° East 537 618 35,000  Level Denver Center
02:53AM 40.0300 -108.1764 79° East 537 618 35,000  Level Denver Center
02:54AM 40.0572 -107.9933 79° East 537 618 35,000  Level Denver Center
02:55AM 40.0928 -107.8131 75° East 536 617 35,000  Level Denver Center
02:56AM 40.1333 -107.6356 73° East 534 615 35,000  Level Denver Center
02:57AM 40.1814 -107.4275 73° East 536 617 35,000  Level Denver Center
02:58AM 40.2225 -107.2492 73° East 535 616 35,000  Level Denver Center
02:59AM 40.2622 -107.0706 74° East 535 616 35,000  Level Denver Center
03:00AM 40.3019 -106.8936 74° East 532 612 35,000  Level Denver Center
03:01AM 40.3483 -106.6853 74° East 532 612 35,000  Level Denver Center
03:02AM 40.3889 -106.5069 73° East 533 613 35,000  Level Denver Center
03:03AM 40.4269 -106.3289 74° East 531 611 35,000  Level Denver Center
03:04AM 40.4681 -106.1400 74° East 536 617 35,000  Level Denver Center
03:05AM 40.5092 -105.9503 74° East 535 616 35,000  Level Denver Center
03:06AM 40.5486 -105.7583 75° East 536 617 35,000  Level Denver Center
03:07AM 40.5886 -105.5653 75° East 538 619 35,000  Level Denver Center
03:08AM 40.6292 -105.3725 74° East 536 617 35,000  Level Denver Center
03:09AM 40.6689 -105.1828 75° East 530 610 35,000  Level Denver Center
03:10AM 40.7081 -104.9872 75° East 538 619 35,000  Level Denver Center
03:11AM 40.7472 -104.7964 75° East 535 616 35,000  Level Denver Center
03:12AM 40.7850 -104.6047 75° East 530 610 35,000 240 Level Denver Center
03:13AM 40.8231 -104.4167 75° East 524 603 35,600 480 Climbing Denver Center
03:14AM 40.8606 -104.2292 75° East 522 601 36,000 180 Climbing Denver Center
03:15AM 40.8975 -104.0375 76° East 530 610 36,000  Level Denver Center
03:16AM 40.9444 -103.8500 72° East 531 611 36,000  Level Denver Center
03:17AM 41.0006 -103.6819 66° East 531 611 36,000  Level Denver Center
03:18AM 41.0550 -103.5086 67° East 533 613 36,000  Level Denver Center
03:19AM 41.1167 -103.3064 68° East 533 613 36,000  Level Denver Center
03:20AM 41.1686 -103.1350 68° East 527 606 36,000 480 Level Denver Center
03:21AM 41.2183 -102.9742 68° East 521 600 37,000 480 Climbing Denver Center
03:22AM 41.2725 -102.8028 67° East 507 583 37,000  Level Denver Center
03:23AM 41.3317 -102.6119 68° East 501 577 37,000  Level Denver Center
03:24AM 41.3814 -102.4519 67° East 507 583 37,000  Level Denver Center
03:25AM 41.4244 -102.3114 68° East 512 589 37,000  Level Denver Center
03:26AM 41.4956 -102.0858 67° East 515 593 37,000  Level Denver Center
03:27AM 41.5383 -101.9478 67° East 510 587 37,000  Level Denver Center
03:28AM 41.5967 -101.7544 68° East 504 580 37,000  Level Denver Center
03:29AM 41.6550 -101.5611 68° East 501 577 37,000  Level Denver Center
03:30AM 41.6958 -101.4222 68° East 501 577 37,000  Level Denver Center
03:31AM 41.7544 -101.2272 68° East 503 579 37,000  Level Denver Center
03:32AM 41.8031 -101.0625 68° East 498 573 37,000  Level Denver Center
03:33AM 41.8592 -100.8703 69° East 494 568 37,000  Level Denver Center
03:34AM 41.9061 -100.7067 69° East 492 566 37,000  Level Denver Center
03:35AM 41.9528 -100.5444 69° East 488 562 37,000  Level Denver Center
03:36AM 42.0069 -100.3575 69° East 483 556 37,000  Level Denver Center
03:37AM 42.0531 -100.1961 69° East 482 555 37,000  Level Denver Center
03:38AM 42.0992 -100.0353 69° East 482 555 37,000  Level Denver Center
03:39AM 42.1444 -99.8733 69° East 484 557 37,000  Level Denver Center
03:40AM 42.1981 -99.6853 69° East 482 555 37,000  Level Denver Center
03:41AM 42.2422 -99.5211 70° East 481 554 37,000  Level Denver Center
03:42AM 42.2894 -99.3506 69° East 487 560 37,000  Level Minneapolis Center
03:43AM 42.3378 -99.1794 69° East 486 559 37,000  Level Minneapolis Center
03:44AM 42.3839 -99.0092 70° East 481 554 37,000  Level Minneapolis Center
03:45AM 42.4308 -98.8372 70° East 484 557 37,000  Level Minneapolis Center
03:46AM 42.4736 -98.6647 71° East 483 556 37,000  Level Minneapolis Center
03:47AM 42.4942 -98.4889 81° East 474 545 37,000  Level Minneapolis Center
03:48AM 42.5142 -98.3128 81° East 472 543 37,000  Level Minneapolis Center
03:49AM 42.5347 -98.1389 81° East 468 539 37,000  Level Minneapolis Center
03:50AM 42.5556 -97.9619 81° East 471 542 37,000  Level Minneapolis Center
03:51AM 42.5753 -97.7936 81° East 473 544 37,000  Level Minneapolis Center
03:52AM 42.5947 -97.6167 81° East 474 545 37,000  Level Minneapolis Center
03:53AM 42.6156 -97.4375 81° East 479 551 37,000  Level Minneapolis Center
03:54AM 42.6350 -97.2600 81° East 477 549 37,000  Level Minneapolis Center
03:55AM 42.6542 -97.0797 82° East 481 554 37,000  Level Minneapolis Center
03:56AM 42.6733 -96.8997 82° East 481 554 37,000  Level Minneapolis Center
03:57AM 42.6931 -96.7156 82° East 486 559 37,000  Level Minneapolis Center
03:58AM 42.7131 -96.5206 82° East 492 566 37,000  Level Minneapolis Center
03:59AM 42.7314 -96.3358 82° East 494 568 37,000  Level Minneapolis Center
04:00AM 42.7492 -96.1564 82° East 487 560 37,000  Level Minneapolis Center
04:01AM 42.7667 -95.9806 82° East 476 548 37,000  Level Minneapolis Center
04:02AM 42.7839 -95.8033 82° East 476 548 37,000  Level Minneapolis Center
04:03AM 42.8014 -95.6247 82° East 478 550 37,000  Level Minneapolis Center
04:04AM 42.8172 -95.4456 83° East 479 551 37,000  Level Minneapolis Center
04:05AM 42.8339 -95.2667 83° East 480 552 37,000  Level Minneapolis Center
04:06AM 42.8497 -95.0850 83° East 483 556 37,000  Level Minneapolis Center
04:07AM 42.8658 -94.9014 83° East 488 562 37,000  Level Minneapolis Center
04:08AM 42.8819 -94.7186 83° East 489 563 37,000  Level Minneapolis Center
04:09AM 42.8967 -94.5442 83° East 492 566 37,000  Level Minneapolis Center
04:10AM 42.9133 -94.3614 83° East 491 565 37,000  Level Minneapolis Center
04:11AM 42.9269 -94.1800 84° East 487 560 37,000  Level Minneapolis Center
04:12AM 42.9403 -93.9969 84° East 488 562 37,000  Level Minneapolis Center
04:13AM 42.9578 -93.7794 84° East 486 559 37,000  Level Minneapolis Center
04:14AM 42.9717 -93.5958 84° East 488 562 37,000  Level Minneapolis Center
04:15AM 42.9858 -93.4117 84° East 491 565 37,000  Level Minneapolis Center
04:16AM 42.9997 -93.2258 84° East 495 570 37,000  Level Minneapolis Center
04:17AM 43.0133 -93.0367 84° East 501 577 37,000  Level Minneapolis Center
04:18AM 43.0264 -92.8464 85° East 506 582 37,000  Level Minneapolis Center
04:19AM 43.0400 -92.6550 84° East 508 585 37,000  Level Minneapolis Center
04:20AM 43.0525 -92.4672 85° East 501 577 37,000  Level Minneapolis Center
04:21AM 43.0650 -92.2769 85° East 504 580 37,000  Level Minneapolis Center
04:22AM 43.0769 -92.0817 85° East 514 592 37,000  Level Minneapolis Center
04:23AM 43.0894 -91.8817 85° East 523 602 37,000  Level Minneapolis Center
04:24AM 43.1022 -91.6861 85° East 520 598 37,000  Level Minneapolis Center
04:25AM 43.1125 -91.4978 86° East 501 577 37,000  Level Minneapolis Center
04:26AM 43.1239 -91.3097 85° East 496 571 37,000  Level Minneapolis Center
04:27AM 43.1339 -91.1211 86° East 497 572 37,000  Level Minneapolis Center
04:28AM 43.1442 -90.9331 86° East 497 572 37,000  Level Minneapolis Center
04:29AM 43.1533 -90.7453 86° East 497 572 37,000  Level Minneapolis Center
04:30AM 43.1628 -90.5575 86° East 497 572 37,000  Level Minneapolis Center
04:31AM 43.1689 -90.4453 86° East 498 573 37,000  Level Chicago Center
04:32AM 43.1767 -90.2550 87° East 494 568 37,000  Level Chicago Center
04:33AM 43.1850 -90.0675 86° East 493 567 37,000  Level Chicago Center
04:34AM 43.1928 -89.8811 87° East 491 565 37,000  Level Chicago Center
04:35AM 43.2017 -89.6958 86° East 489 563 37,000  Level Chicago Center
04:36AM 43.2081 -89.5103 87° East 488 562 37,000  Level Chicago Center
04:37AM 43.2150 -89.3247 87° East 488 562 37,000  Level Chicago Center
04:38AM 43.2231 -89.1411 86° East 486 559 37,000  Level Chicago Center
04:39AM 43.2294 -88.9567 87° East 486 559 37,000  Level Chicago Center
04:40AM 43.2358 -88.7739 87° East 483 556 37,000  Level Chicago Center
04:41AM 43.2417 -88.5908 87° East 486 559 37,000  Level Chicago Center
04:42AM 43.2469 -88.3758 88° East 492 566 37,000  Level Chicago Center
04:43AM 43.2531 -88.1908 87° East 491 565 37,000  Level Chicago Center
04:44AM 43.2586 -88.0036 88° East 494 568 37,000  Level Chicago Center
04:45AM 43.2628 -87.8139 88° East 499 574 37,000  Level Chicago Center
04:46AM 43.2681 -87.6258 88° East 496 571 37,000  Level Chicago Center
04:47AM 43.2722 -87.4361 88° East 498 573 37,000  Level Chicago Center
04:48AM 43.2764 -87.2489 88° East 502 578 37,000  Level Chicago Center
04:49AM 43.2794 -87.0597 89° East 499 574 37,000  Level Chicago Center
04:50AM 43.2825 -86.8678 89° East 502 578 37,000  Level Chicago Center
04:51AM 43.2853 -86.6764 89° East 502 578 37,000  Level Chicago Center
04:52AM 43.2886 -86.4831 89° East 506 582 37,000  Level Chicago Center
04:53AM 43.2914 -86.2903 89° East 503 579 37,000  Level Chicago Center
04:54AM 43.2928 -86.0939 89° East 507 583 37,000  Level Chicago Center
04:55AM 43.2950 -85.9378 89° East 506 582 37,000  Level Chicago Center
04:56AM 43.2961 -85.7433 89° East 504 580 37,000  Level Chicago Center
04:57AM 43.2969 -85.5467 90° East 510 587 37,000  Level Chicago Center
04:58AM 43.2981 -85.3522 89° East 509 586 37,000  Level Chicago Center
04:59AM 43.2964 -85.2275 91° East 514 592 37,000  Level Cleveland Center
05:00AM 43.2978 -85.0308 89° East 514 592 37,000  Level Cleveland Center
05:01AM 43.2967 -84.8394 90° East 514 592 37,000  Level Cleveland Center
05:02AM 43.2975 -84.6483 90° East 509 586 37,000  Level Cleveland Center
05:03AM 43.2956 -84.4542 91° East 509 586 37,000  Level Cleveland Center
05:04AM 43.2956 -84.2631 90° East 509 586 37,000  Level Cleveland Center
05:05AM 43.2933 -84.0717 91° East 503 579 37,000  Level Cleveland Center
05:06AM 43.2889 -83.8633 92° East 492 566 37,000  Level Cleveland Center
05:07AM 43.2881 -83.6719 90° East 498 573 37,000  Level Cleveland Center
05:08AM 43.2867 -83.4781 90° East 498 573 37,000  Level Cleveland Center
05:09AM 43.2847 -83.3067 91° East 498 573 37,000  Level Cleveland Center
05:10AM 43.2806 -83.1128 92° East 498 573 37,000  Level Cleveland Center
05:11AM 43.2783 -82.9214 91° East 498 573 37,000  Level Cleveland Center
05:12AM 43.2761 -82.7275 91° East 498 573 37,000  Level Cleveland Center
05:12AM 43.2667 -82.6167 97° East 500 575 37,000  Level Toronto Center
05:13AM 43.2667 -82.4333 90° East 500 575 37,000  Level Toronto Center
05:14AM 43.2500 -82.2167 96° East 500 575 37,000  Level Toronto Center
05:15AM 43.2333 -82.0333 97° East 500 575 37,000  Level Toronto Center
05:16AM 43.2500 -81.8333 83° East 510 587 37,000  Level Toronto Center
05:17AM 43.2333 -81.6500 97° East 510 587 37,000  Level Toronto Center
05:18AM 43.2333 -81.4667 90° East 510 587 37,000  Level Toronto Center
05:19AM 43.2167 -81.2833 97° East 510 587 37,000  Level Toronto Center
05:20AM 43.2167 -81.0667 90° East 510 587 37,000  Level Toronto Center
05:21AM 43.2000 -80.8667 96° East 510 587 37,000  Level Toronto Center
05:22AM 43.2167 -80.6667 83° East 510 587 37,000  Level Toronto Center
05:23AM 43.2000 -80.4833 97° East 510 587 37,000  Level Toronto Center
05:24AM 43.2000 -80.3000 90° East 520 598 37,000  Level Toronto Center
05:25AM 43.1833 -80.0833 96° East 520 598 37,000  Level Toronto Center
05:26AM 43.1667 -79.9000 97° East 520 598 37,000  Level Toronto Center
05:27AM 43.1667 -79.6833 90° East 520 598 37,000  Level Toronto Center
05:28AM 43.1500 -79.5000 97° East 520 598 37,000  Level Toronto Center
05:29AM 43.1500 -79.2833 90° East 520 598 37,000  Level Toronto Center
05:30AM 43.1333 -79.0833 96° East 530 610 37,000  Level Toronto Center
05:31AM 43.1333 -78.9000 90° East 520 598 37,000  Level Toronto Center
05:32AM 43.1303 -78.8081 93° East 519 597 37,000  Level Cleveland Center
05:33AM 43.1186 -78.6122 95° East 519 597 37,000  Level Cleveland Center
05:34AM 43.1069 -78.4164 95° East 519 597 37,000  Level Cleveland Center
05:35AM 43.0967 -78.2178 94° East 519 597 37,000  Level Cleveland Center
05:36AM 43.0842 -78.0192 95° East 519 597 37,000  Level Cleveland Center
05:37AM 43.0714 -77.8236 95° East 514 592 37,000  Level Cleveland Center
05:39AM 43.0483 -77.4617 95° East 503 579 37,000  Level Boston Center
05:39AM 43.0167 -77.3000 105° East 520 598 37,000  Level Toronto Center
05:40AM 43.0167 -77.1000 90° East 520 598 37,000  Level Toronto Center
05:41AM 43.0000 -76.9167 97° East 520 598 37,000  Level Toronto Center
05:42AM 43.0000 -76.7167 90° East 520 598 37,000  Level Toronto Center
05:43AM 42.9914 -76.6531 100° East 524 603 37,000  Level Boston Center
05:44AM 42.9797 -76.4564 95° East 524 603 37,000  Level Boston Center
05:45AM 42.9636 -76.2594 96° East 524 603 37,000  Level Boston Center
05:46AM 42.9472 -76.0597 96° East 524 603 37,000  Level Boston Center
05:47AM 42.9325 -75.8633 96° East 524 603 37,000  Level Boston Center
05:48AM 42.9153 -75.6636 97° East 524 603 37,000  Level Boston Center
05:49AM 42.8964 -75.4417 97° East 530 610 37,000  Level Boston Center
05:50AM 42.8806 -75.2425 96° East 530 610 37,000  Level Boston Center
05:51AM 42.8625 -75.0461 97° East 530 610 37,000  Level Boston Center
05:52AM 42.8439 -74.8442 97° East 525 604 37,000 -60 Level Boston Center
05:53AM 42.8250 -74.6453 97° East 525 604 36,900  Descending Boston Center
05:54AM 42.8100 -74.4467 96° East 525 604 37,000  Climbing Boston Center
05:55AM 42.7903 -74.2453 98° East 525 604 36,900  Descending Boston Center
05:56AM 42.7706 -74.0408 97° East 525 604 37,000  Climbing Boston Center
05:57AM 42.7503 -73.8397 98° East 537 618 37,000  Level Boston Center
05:58AM 42.7317 -73.6414 97° East 537 618 37,000 -1,140 Level Boston Center
05:59AM 42.7128 -73.4403 97° East 537 618 34,800 -2,760 Descending Boston Center
06:00AM 42.6872 -73.2339 99° East 543 625 31,500 -3,060 Descending Boston Center
06:01AM 42.6656 -73.0275 98° East 543 625 28,700 -2,340 Descending Boston Center
06:02AM 42.6417 -72.8069 98° East 548 631 26,500 -1,980 Descending Boston Center
06:03AM 42.6253 -72.6292 97° East 514 592 24,400 -2,340 Descending Boston Center
06:04AM 42.5964 -72.4486 102° East 486 559 21,900 -2,580 Descending Boston Center
06:05AM 42.5733 -72.2736 100° East 476 548 19,300 -2,700 Descending Boston Center
06:06AM 42.5500 -72.0906 100° East 455 524 16,500 -2,580 Descending Boston Center
06:07AM 42.5347 -71.9469 98° East 438 504 14,300 -2,340 Descending Boston Center
06:08AM 42.5214 -71.7725 96° East 429 494 11,900 -1,620 Descending Boston Center
06:09AM 42.5058 -71.6403 99° East 403 464 11,100 -960 Descending Boston Center
06:10AM 42.5167 -71.5167 83° East 351 404 10,200 -1,200 Descending KA90
06:11AM 42.5500 -71.3833 71° East 331 381 8,900 -1,800 Descending KA90
06:12AM 42.5667 -71.2667 79° East 305 351 6,500 -1,860 Descending KA90
06:13AM 42.5833 -71.1667 77° East 283 326 5,200 -1,380 Descending KA90
06:14AM 42.6000 -71.1000 71° East 277 319 4,200 -1,020 Descending KA90
06:15AM 42.5667 -71.0000 114° Southeast 252 290 3,400 -840 Descending KA90